Time;durP1;ratioP1;P1;durP2;ratioP2;P2;SDS_P1;SDS_P2;PMS_P1;PMS_P2;Temp;Humidity;BMP_temperature;BMP_pressure;BME280_temperature;BME280_humidity;BME280_pressure;Samples;Min_cycle;Max_cycle;Signal;HPM_P1;HPM_P2
2022/10/31 00:02:04;;;;;;;24.52;9.15;;;;;;;21.46;100.00;101883.56;5000964;28;20046;-53
2022/10/31 00:04:30;;;;;;;15.55;7.45;;;;;;;21.89;100.00;101886.78;5011258;28;20078;-50
2022/10/31 00:06:56;;;;;;;14.73;7.70;;;;;;;21.95;100.00;101879.53;5002493;28;20043;-51
2022/10/31 00:09:21;;;;;;;15.43;7.15;;;;;;;22.13;100.00;101883.91;5004291;28;20070;-47
2022/10/31 00:11:47;;;;;;;14.73;6.68;;;;;;;21.97;100.00;101890.19;4996248;28;20046;-49
2022/10/31 00:14:12;;;;;;;13.60;6.87;;;;;;;21.99;100.00;101885.31;5005953;28;20035;-52
2022/10/31 00:16:37;;;;;;;14.13;6.93;;;;;;;21.55;100.00;101885.88;4999981;28;20027;-49
2022/10/31 00:19:05;;;;;;;18.83;7.43;;;;;;;21.54;100.00;101878.78;5007375;28;20098;-50
2022/10/31 00:21:32;;;;;;;16.23;7.47;;;;;;;21.98;100.00;101879.03;5012533;28;20019;-49
2022/10/31 00:23:59;;;;;;;15.38;6.97;;;;;;;21.92;100.00;101880.88;5000512;28;20280;-52
2022/10/31 00:26:26;;;;;;;17.50;6.97;;;;;;;22.01;100.00;101885.91;5000018;28;20033;-51
2022/10/31 00:28:52;;;;;;;19.93;7.03;;;;;;;21.98;100.00;101880.94;5001775;28;20284;-51
2022/10/31 00:31:18;;;;;;;15.15;6.38;;;;;;;21.85;100.00;101879.38;5008523;28;20269;-52
2022/10/31 00:33:44;;;;;;;16.33;6.80;;;;;;;21.83;100.00;101886.97;5007241;28;20062;-50
2022/10/31 00:36:16;;;;;;;15.43;7.22;;;;;;;21.82;100.00;101885.31;5006856;28;20038;-50
2022/10/31 00:38:42;;;;;;;17.03;7.77;;;;;;;21.68;100.00;101887.50;4998829;28;20049;-49
2022/10/31 00:41:09;;;;;;;15.90;6.90;;;;;;;21.80;100.00;101885.56;5005292;28;20298;-52
2022/10/31 00:43:34;;;;;;;13.70;6.38;;;;;;;21.32;100.00;101899.34;5029402;28;20356;-50
2022/10/31 00:46:00;;;;;;;16.20;7.30;;;;;;;21.47;100.00;101895.28;5003289;28;20069;-52
2022/10/31 00:48:25;;;;;;;15.17;6.70;;;;;;;21.45;100.00;101900.13;5028160;28;20295;-51
2022/10/31 00:50:52;;;;;;;19.27;7.53;;;;;;;21.44;100.00;101893.03;5006409;28;20035;-49
2022/10/31 00:53:17;;;;;;;19.92;7.93;;;;;;;21.77;100.00;101894.22;4955910;28;20350;-52
2022/10/31 00:55:43;;;;;;;19.70;7.70;;;;;;;21.58;100.00;101886.22;4976834;28;20032;-54
2022/10/31 00:58:09;;;;;;;15.90;7.68;;;;;;;21.51;100.00;101888.28;4960998;28;20067;-53
2022/10/31 01:00:35;;;;;;;18.02;7.25;;;;;;;21.62;100.00;101887.38;4962811;28;20031;-51
2022/10/31 01:03:01;;;;;;;19.27;10.05;;;;;;;21.57;100.00;101889.22;4971002;28;20043;-50
2022/10/31 01:05:27;;;;;;;14.18;6.63;;;;;;;21.96;100.00;101891.25;4959541;28;20028;-50
2022/10/31 01:07:53;;;;;;;18.13;6.85;;;;;;;21.69;100.00;101887.28;4971357;28;20065;-53
2022/10/31 01:10:18;;;;;;;14.68;7.32;;;;;;;21.84;100.00;101883.97;4952001;29;20074;-50
2022/10/31 01:12:46;;;;;;;20.20;8.35;;;;;;;21.80;100.00;101876.53;4962515;28;20062;-50
2022/10/31 01:15:16;;;;;;;19.83;8.27;;;;;;;21.70;100.00;101869.06;4967886;28;20063;-54
2022/10/31 01:17:41;;;;;;;17.00;9.10;;;;;;;21.46;100.00;101877.31;4966099;28;20334;-52
2022/10/31 01:20:11;;;;;;;20.93;7.80;;;;;;;21.42;100.00;101873.41;4967572;28;20273;-53
2022/10/31 01:22:38;;;;;;;19.00;8.63;;;;;;;21.16;100.00;101875.63;4967855;28;20277;-52
2022/10/31 01:25:04;;;;;;;17.38;8.82;;;;;;;20.97;100.00;101867.66;4966098;28;20294;-49
2022/10/31 01:27:31;;;;;;;21.63;8.63;;;;;;;21.00;100.00;101864.47;4956105;28;20078;-52
2022/10/31 01:29:57;;;;;;;17.97;8.10;;;;;;;21.16;100.00;101852.00;4975617;28;20070;-50
2022/10/31 01:32:23;;;;;;;22.33;8.80;;;;;;;20.75;100.00;101854.66;4966443;28;20276;-52
2022/10/31 01:34:50;;;;;;;16.37;7.63;;;;;;;20.84;100.00;101862.50;4963923;28;20032;-50
2022/10/31 01:37:16;;;;;;;20.70;8.55;;;;;;;21.18;100.00;101854.47;4964787;28;20776;-50
2022/10/31 01:39:42;;;;;;;17.20;8.63;;;;;;;21.39;100.00;101855.69;4961543;28;20103;-50
2022/10/31 01:42:15;;;;;;;19.73;9.37;;;;;;;21.37;100.00;101857.00;4962412;28;20065;-52
2022/10/31 01:44:40;;;;;;;14.67;7.70;;;;;;;20.95;100.00;101852.66;4961474;28;20035;-49
2022/10/31 01:47:17;;;;;;;18.42;8.40;;;;;;;20.95;100.00;101845.31;4968670;28;20309;-49
2022/10/31 01:49:50;;;;;;;21.90;9.23;;;;;;;20.98;100.00;101852.16;4955068;28;20123;-54
2022/10/31 01:52:31;;;;;;;17.07;9.17;;;;;;;21.03;100.00;101846.81;4993697;28;20054;-54
2022/10/31 01:54:58;;;;;;;19.27;9.87;;;;;;;21.00;100.00;101850.88;5002322;28;20264;-51
2022/10/31 01:57:24;;;;;;;17.93;8.67;;;;;;;20.23;100.00;101849.16;5005790;28;20287;-49
2022/10/31 01:59:54;;;;;;;24.57;10.03;;;;;;;21.00;100.00;101853.59;4999934;28;21296;-52
2022/10/31 02:02:20;;;;;;;21.83;10.87;;;;;;;20.71;100.00;101858.94;5006618;28;20264;-51
2022/10/31 02:04:47;;;;;;;23.77;10.90;;;;;;;20.68;100.00;101862.13;5006205;28;20284;-51
2022/10/31 02:07:23;;;;;;;24.00;10.53;;;;;;;20.99;100.00;101860.09;5005105;28;20345;-51
2022/10/31 02:09:51;;;;;;;25.10;12.43;;;;;;;20.86;100.00;101860.34;4993102;28;20296;-52
2022/10/31 02:12:17;;;;;;;25.17;13.17;;;;;;;20.38;100.00;101860.38;5027722;28;20273;-53
2022/10/31 02:14:44;;;;;;;25.97;13.53;;;;;;;20.39;100.00;101858.47;5031330;28;20272;-53
2022/10/31 02:17:10;;;;;;;25.73;13.45;;;;;;;20.31;100.00;101862.41;4994165;28;20260;-55
2022/10/31 02:19:50;;;;;;;21.40;13.07;;;;;;;20.24;100.00;101845.38;5026212;28;20045;-53
2022/10/31 02:22:40;;;;;;;27.67;14.17;;;;;;;20.18;100.00;101853.41;4999017;28;20098;-53
2022/10/31 02:25:43;;;;;;;30.73;13.67;;;;;;;20.21;100.00;101854.84;5022064;28;20276;-50
2022/10/31 02:28:33;;;;;;;29.53;15.67;;;;;;;19.92;100.00;101850.09;5014293;28;20284;-49
2022/10/31 02:31:32;;;;;;;28.20;13.37;;;;;;;20.02;100.00;101851.38;5017823;28;20273;-50
2022/10/31 02:34:15;;;;;;;34.80;14.93;;;;;;;20.06;100.00;101855.28;5002582;28;20264;-53
2022/10/31 02:36:56;;;;;;;32.60;15.80;;;;;;;20.14;100.00;101849.53;5012304;28;20275;-49
2022/10/31 02:39:50;;;;;;;30.07;15.27;;;;;;;20.11;100.00;101852.72;5016986;28;20273;-50
2022/10/31 02:42:38;;;;;;;32.37;16.23;;;;;;;19.97;100.00;101851.28;5016534;28;20277;-53
2022/10/31 02:45:28;;;;;;;32.70;17.33;;;;;;;20.57;100.00;101854.84;5023885;28;20307;-51
2022/10/31 02:47:58;;;;;;;33.03;15.77;;;;;;;19.74;100.00;101847.44;4998744;28;20273;-48
2022/10/31 02:50:35;;;;;;;30.40;17.27;;;;;;;19.23;100.00;101850.44;5008248;28;20272;-52
2022/10/31 02:53:02;;;;;;;40.23;18.03;;;;;;;19.68;100.00;101854.59;4994369;28;20293;-53
2022/10/31 02:55:28;;;;;;;;;;;;;;;19.41;100.00;101849.56;4989872;28;20277;-49
2022/10/31 02:58:04;;;;;;;40.90;18.47;;;;;;;19.46;100.00;101857.03;4976586;28;19953;-53
2022/10/31 03:00:38;;;;;;;31.17;16.73;;;;;;;19.55;100.00;101855.63;4983749;28;20280;-51
2022/10/31 03:03:23;;;;;;;43.83;20.40;;;;;;;19.54;100.00;101848.56;4990206;28;20281;-51
2022/10/31 03:06:03;;;;;;;34.57;18.60;;;;;;;19.66;100.00;101861.34;4984306;28;20739;-51
2022/10/31 03:08:50;;;;;;;36.17;17.83;;;;;;;19.83;100.00;101856.88;4971765;28;20280;-51
2022/10/31 03:11:18;;;;;;;42.93;19.57;;;;;;;19.65;100.00;101859.69;4979782;28;20303;-50
2022/10/31 03:13:57;;;;;;;36.93;18.83;;;;;;;19.78;100.00;101864.88;4974100;28;20272;-48
2022/10/31 03:16:29;;;;;;;36.77;19.47;;;;;;;20.19;100.00;101860.50;4990000;28;20273;-51
2022/10/31 03:19:04;;;;;;;35.20;19.47;;;;;;;20.28;100.00;101862.84;4986158;28;20278;-52
2022/10/31 03:21:33;;;;;;;37.53;20.30;;;;;;;19.88;100.00;101865.16;4991453;28;20370;-50
2022/10/31 03:24:01;;;;;;;43.27;21.00;;;;;;;19.01;100.00;101856.34;4981856;28;20265;-50
2022/10/31 03:26:27;;;;;;;37.13;20.17;;;;;;;18.77;100.00;101861.59;4978331;28;20300;-49
2022/10/31 03:29:04;;;;;;;41.10;21.13;;;;;;;18.71;100.00;101859.81;4982741;28;20292;-52
2022/10/31 03:31:36;;;;;;;41.40;21.40;;;;;;;18.61;100.00;101862.19;4982783;28;20297;-49
2022/10/31 03:34:07;;;;;;;37.03;20.33;;;;;;;18.37;100.00;101864.72;4987381;28;20027;-52
2022/10/31 03:36:36;;;;;;;42.77;23.17;;;;;;;18.31;100.00;101871.03;4980660;28;20273;-53
2022/10/31 03:39:05;;;;;;;43.23;22.50;;;;;;;18.20;100.00;101861.75;4997389;28;20269;-51
2022/10/31 03:41:38;;;;;;;42.53;22.70;;;;;;;18.26;100.00;101870.88;4982117;28;20284;-50
2022/10/31 03:44:10;;;;;;;47.17;22.33;;;;;;;18.11;100.00;101872.03;4987405;28;20328;-49
2022/10/31 03:46:38;;;;;;;46.80;23.07;;;;;;;18.42;100.00;101862.16;4982291;28;20281;-50
2022/10/31 03:49:04;;;;;;;;;;;;;;;18.64;100.00;101867.16;4990394;28;20285;-49
2022/10/31 03:51:46;;;;;;;42.90;21.53;;;;;;;18.77;100.00;101856.19;4989541;28;19914;-53
2022/10/31 03:54:23;;;;;;;43.57;21.70;;;;;;;18.55;100.00;101868.50;5011874;28;20060;-51
2022/10/31 03:57:14;;;;;;;44.67;21.63;;;;;;;18.68;100.00;101862.13;5002647;28;20268;-50
2022/10/31 03:59:47;;;;;;;41.53;21.47;;;;;;;18.81;100.00;101851.16;5008069;28;20042;-54
2022/10/31 04:02:18;;;;;;;43.57;22.67;;;;;;;18.60;100.00;101861.38;5004384;28;20264;-52
2022/10/31 04:04:46;;;;;;;41.03;21.67;;;;;;;18.50;100.00;101858.34;5009235;28;20328;-52
2022/10/31 04:07:13;;;;;;;45.00;22.47;;;;;;;18.42;100.00;101861.34;5007548;28;20296;-51
2022/10/31 04:09:42;;;;;;;39.97;21.23;;;;;;;18.82;100.00;101851.97;5008027;28;20287;-48
2022/10/31 04:12:11;;;;;;;47.53;23.20;;;;;;;18.17;100.00;101863.00;5002148;28;20284;-50
2022/10/31 04:15:02;;;;;;;40.30;21.33;;;;;;;18.28;100.00;101856.03;5013654;28;20295;-52
2022/10/31 04:17:31;;;;;;;51.73;21.90;;;;;;;18.32;100.00;101857.25;5003981;28;20295;-49
2022/10/31 04:20:00;;;;;;;41.80;20.33;;;;;;;18.62;100.00;101853.00;4985993;28;20307;-51
2022/10/31 04:22:25;;;;;;;39.77;21.93;;;;;;;18.29;100.00;101862.31;5010176;28;20277;-51
2022/10/31 04:24:51;;;;;;;41.28;21.98;;;;;;;18.30;100.00;101862.06;5004446;28;20295;-55
2022/10/31 04:27:17;;;;;;;39.40;18.23;;;;;;;18.85;100.00;101856.94;4992546;28;20035;-51
2022/10/31 04:29:42;;;;;;;39.67;20.40;;;;;;;18.47;100.00;101859.63;5002370;28;20063;-54
2022/10/31 04:32:08;;;;;;;42.87;20.80;;;;;;;18.45;100.00;101859.03;5009198;28;20073;-52
2022/10/31 04:34:34;;;;;;;45.42;20.17;;;;;;;18.17;100.00;101852.19;4991597;28;20048;-53
2022/10/31 04:37:00;;;;;;;40.58;20.27;;;;;;;17.89;100.00;101853.44;5030204;28;20059;-50
2022/10/31 04:39:26;;;;;;;36.60;18.53;;;;;;;18.23;100.00;101849.66;4997747;28;20034;-49
2022/10/31 04:42:28;;;;;;;36.53;19.23;;;;;;;18.12;100.00;101848.50;4969167;28;20092;-52
2022/10/31 04:44:58;;;;;;;36.67;19.67;;;;;;;18.39;100.00;101850.97;5010379;28;20276;-53
2022/10/31 04:47:23;;;;;;;35.30;19.37;;;;;;;18.12;100.00;101849.31;5022278;28;20276;-55
2022/10/31 04:49:49;;;;;;;41.80;19.95;;;;;;;18.03;100.00;101851.47;5025832;28;20030;-51
2022/10/31 04:52:15;;;;;;;41.17;21.13;;;;;;;18.00;100.00;101856.50;5039128;28;20044;-49
2022/10/31 04:54:42;;;;;;;35.07;20.03;;;;;;;18.14;100.00;101849.13;5065671;28;20091;-52
2022/10/31 04:57:41;;;;;;;38.67;21.00;;;;;;;18.47;100.00;101861.50;5066809;28;20292;-53
2022/10/31 05:00:09;;;;;;;41.13;20.23;;;;;;;18.20;100.00;101851.72;5064391;28;20363;-49
2022/10/31 05:02:42;;;;;;;42.03;20.33;;;;;;;17.97;100.00;101857.75;5064242;28;20270;-53
2022/10/31 05:05:08;;;;;;;38.57;20.37;;;;;;;18.41;100.00;101854.28;5059087;28;20274;-52
2022/10/31 05:07:38;;;;;;;40.63;20.88;;;;;;;18.09;100.00;101844.34;5061124;28;20270;-55
2022/10/31 05:10:04;;;;;;;37.43;18.23;;;;;;;18.22;100.00;101847.97;5066338;28;20040;-54
2022/10/31 05:12:31;;;;;;;36.77;20.57;;;;;;;18.15;100.00;101846.16;5064329;28;20262;-53
2022/10/31 05:15:06;;;;;;;40.33;20.03;;;;;;;17.86;100.00;101839.50;5065086;28;20277;-53
2022/10/31 05:17:50;;;;;;;38.03;18.87;;;;;;;17.50;100.00;101836.41;5066414;28;20281;-54
2022/10/31 05:20:36;;;;;;;33.70;18.60;;;;;;;17.81;100.00;101840.19;5059453;28;20262;-55
2022/10/31 05:23:07;;;;;;;37.43;19.97;;;;;;;17.81;100.00;101837.47;5061893;28;20329;-54
2022/10/31 05:25:34;;;;;;;40.55;20.23;;;;;;;17.90;100.00;101841.56;5066320;28;20287;-52
2022/10/31 05:28:02;;;;;;;39.07;19.23;;;;;;;17.67;100.00;101849.44;5065328;28;20031;-53
2022/10/31 05:30:31;;;;;;;39.22;21.30;;;;;;;17.49;100.00;101841.00;5068863;28;20281;-54
2022/10/31 05:32:57;;;;;;;47.43;21.57;;;;;;;17.62;100.00;101842.81;5062335;28;20063;-54
2022/10/31 05:35:55;;;;;;;46.13;21.57;;;;;;;17.76;100.00;101839.97;5063833;28;20266;-55
2022/10/31 05:38:50;;;;;;;52.70;21.33;;;;;;;17.82;100.00;101839.13;5064047;28;20277;-50
2022/10/31 05:41:28;;;;;;;51.33;22.03;;;;;;;17.82;100.00;101838.28;5068591;28;20307;-54
2022/10/31 05:44:03;;;;;;;48.73;21.23;;;;;;;17.85;100.00;101835.13;5060143;28;20293;-51
2022/10/31 05:46:31;;;;;;;37.00;20.33;;;;;;;17.79;100.00;101839.56;5062951;28;20283;-53
2022/10/31 05:49:20;;;;;;;41.97;19.87;;;;;;;18.15;100.00;101834.53;5031006;28;20304;-54
2022/10/31 05:52:05;;;;;;;46.70;20.57;;;;;;;17.70;100.00;101832.75;5046186;28;20299;-51
2022/10/31 05:54:40;;;;;;;60.27;19.80;;;;;;;17.74;100.00;101839.38;5000606;28;20312;-53
2022/10/31 05:57:08;;;;;;;41.00;19.63;;;;;;;17.58;100.00;101832.63;5001604;28;20336;-53
2022/10/31 05:59:33;;;;;;;45.80;20.33;;;;;;;17.56;100.00;101832.88;5003890;28;20284;-53
2022/10/31 06:02:00;;;;;;;41.60;20.17;;;;;;;17.78;100.00;101832.50;5004841;28;20030;-52
2022/10/31 06:04:55;;;;;;;37.27;19.77;;;;;;;17.85;100.00;101827.03;5003741;28;20275;-54
2022/10/31 06:07:21;;;;;;;65.03;19.98;;;;;;;17.84;100.00;101826.22;5013126;28;20283;-54
2022/10/31 06:09:46;;;;;;;44.80;20.23;;;;;;;17.73;100.00;101835.84;5002899;28;20062;-53
2022/10/31 06:12:12;;;;;;;39.95;19.45;;;;;;;17.94;100.00;101831.13;4994856;28;20277;-51
2022/10/31 06:14:57;;;;;;;44.27;18.57;;;;;;;17.82;100.00;101831.00;5004327;28;20058;-53
2022/10/31 06:17:23;;;;;;;45.97;19.38;;;;;;;17.69;100.00;101828.38;5011956;28;20268;-54
2022/10/31 06:20:09;;;;;;;49.73;19.50;;;;;;;17.64;100.00;101829.03;5005171;28;20081;-53
2022/10/31 06:22:44;;;;;;;49.83;19.70;;;;;;;17.10;100.00;101831.25;5015056;28;20330;-51
2022/10/31 06:25:09;;;;;;;41.70;19.50;;;;;;;17.52;100.00;101830.81;5008019;28;20280;-55
2022/10/31 06:27:37;;;;;;;34.90;16.90;;;;;;;17.51;100.00;101832.66;5025019;28;20038;-52
2022/10/31 06:30:09;;;;;;;45.53;18.57;;;;;;;18.23;100.00;101833.41;4992251;28;20296;-53
2022/10/31 06:32:37;;;;;;;34.67;17.63;;;;;;;17.56;100.00;101830.16;4985114;28;20345;-57
2022/10/31 06:35:04;;;;;;;31.30;17.87;;;;;;;17.72;100.00;101825.25;4992917;28;20268;-54
2022/10/31 06:37:32;;;;;;;32.93;17.73;;;;;;;17.59;100.00;101829.72;4993956;28;20296;-55
2022/10/31 06:40:06;;;;;;;31.03;17.43;;;;;;;17.64;100.00;101831.75;5010194;28;20273;-57
2022/10/31 06:42:56;;;;;;;39.17;18.83;;;;;;;18.09;100.00;101835.38;4994930;28;20280;-55
2022/10/31 06:45:23;;;;;;;36.73;18.80;;;;;;;17.67;100.00;101830.50;5022917;28;20314;-53
2022/10/31 06:48:18;;;;;;;39.87;17.67;;;;;;;17.95;100.00;101831.94;5018201;28;20276;-54
2022/10/31 06:51:09;;;;;;;38.17;18.73;;;;;;;18.29;100.00;101837.94;5002382;28;20299;-55
2022/10/31 06:53:37;;;;;;;37.93;19.10;;;;;;;18.05;100.00;101832.31;4972353;28;20331;-58
2022/10/31 06:56:04;;;;;;;31.53;18.60;;;;;;;17.82;100.00;101836.41;4972118;28;20349;-57
2022/10/31 06:58:35;;;;;;;42.23;20.13;;;;;;;18.58;100.00;101833.69;4977077;28;20280;-57
2022/10/31 07:01:03;;;;;;;43.87;19.83;;;;;;;18.18;100.00;101836.78;4973187;28;20285;-55
2022/10/31 07:03:29;;;;;;;36.22;18.50;;;;;;;18.38;100.00;101839.28;4993119;28;20300;-58
2022/10/31 07:05:56;;;;;;;41.38;18.98;;;;;;;18.76;100.00;101832.00;4980154;28;20039;-59
2022/10/31 07:08:22;;;;;;;37.17;20.43;;;;;;;18.38;100.00;101833.06;4979460;28;20035;-58
2022/10/31 07:10:55;;;;;;;42.13;19.10;;;;;;;18.27;100.00;101835.44;4977590;28;20289;-57
2022/10/31 07:13:25;;;;;;;39.63;19.70;;;;;;;18.54;100.00;101827.03;4981421;28;20295;-58
2022/10/31 07:16:01;;;;;;;44.43;19.83;;;;;;;18.97;100.00;101827.19;4987516;28;20281;-56
2022/10/31 07:18:27;;;;;;;43.70;19.73;;;;;;;18.86;100.00;101828.78;4982270;28;20281;-58
2022/10/31 07:20:53;;;;;;;42.65;19.70;;;;;;;18.48;100.00;101836.91;4974131;28;20281;-58
2022/10/31 07:23:20;;;;;;;37.88;19.77;;;;;;;18.54;100.00;101837.06;4977199;28;20046;-56
2022/10/31 07:25:58;;;;;;;37.33;19.57;;;;;;;18.60;100.00;101833.44;4975469;28;20058;-59
2022/10/31 07:28:29;;;;;;;40.47;18.70;;;;;;;18.87;100.00;101833.13;4967850;28;20301;-59
2022/10/31 07:30:57;;;;;;;40.30;19.30;;;;;;;18.54;100.00;101834.34;4972878;28;20278;-57
2022/10/31 07:33:25;;;;;;;38.57;20.00;;;;;;;18.41;100.00;101836.13;4956161;28;20043;-57
2022/10/31 07:36:14;;;;;;;34.37;18.67;;;;;;;18.76;100.00;101837.44;4966150;28;20284;-56
2022/10/31 07:38:43;;;;;;;39.70;19.90;;;;;;;18.82;100.00;101835.72;4966993;28;20266;-52
2022/10/31 07:41:09;;;;;;;33.85;19.50;;;;;;;19.06;100.00;101840.22;4967146;28;20377;-57
2022/10/31 07:43:39;;;;;;;36.17;18.17;;;;;;;19.17;100.00;101840.53;4969023;28;20036;-57
2022/10/31 07:46:14;;;;;;;48.20;20.50;;;;;;;19.21;100.00;101844.44;4970673;28;20289;-56
2022/10/31 07:48:59;;;;;;;44.20;20.77;;;;;;;18.80;100.00;101843.22;4970315;28;20263;-59
2022/10/31 07:51:43;;;;;;;40.47;20.23;;;;;;;19.06;100.00;101842.94;4973067;28;20294;-53
2022/10/31 07:54:27;;;;;;;37.20;20.07;;;;;;;19.43;100.00;101852.06;4981551;28;20273;-57
2022/10/31 07:56:53;;;;;;;35.30;18.37;;;;;;;19.38;100.00;101860.88;4990636;28;20261;-56
2022/10/31 07:59:18;;;;;;;35.63;19.13;;;;;;;19.66;100.00;101853.19;4981291;28;20026;-54
2022/10/31 08:01:43;;;;;;;31.90;17.07;;;;;;;19.88;100.00;101848.88;4990598;28;20084;-54
2022/10/31 08:04:27;;;;;;;39.70;19.40;;;;;;;19.66;100.00;101850.47;4988623;28;20065;-56
2022/10/31 08:07:12;;;;;;;38.90;19.00;;;;;;;19.74;100.00;101847.44;4987813;28;20319;-59
2022/10/31 08:09:42;;;;;;;36.00;18.07;;;;;;;20.20;100.00;101856.72;4972103;28;20260;-56
2022/10/31 08:12:18;;;;;;;33.37;17.57;;;;;;;20.71;100.00;101860.84;4983872;28;20265;-57
2022/10/31 08:14:44;;;;;;;39.95;19.10;;;;;;;20.63;100.00;101853.88;4981766;28;20400;-56
2022/10/31 08:17:10;;;;;;;;;;;;;;;20.88;100.00;101852.78;4985779;28;20059;-57
2022/10/31 08:19:44;;;;;;;36.13;16.60;;;;;;;20.92;100.00;101856.66;4976256;28;19968;-52
2022/10/31 08:22:12;;;;;;;33.33;16.67;;;;;;;20.90;100.00;101854.22;4996759;28;20291;-58
2022/10/31 08:24:38;;;;;;;33.17;17.67;;;;;;;21.67;100.00;101851.31;4991013;28;20285;-59
2022/10/31 08:27:03;;;;;;;29.30;16.00;;;;;;;22.11;100.00;101858.00;4983663;28;20289;-59
2022/10/31 08:29:28;;;;;;;27.60;15.23;;;;;;;21.91;100.00;101857.44;4983453;28;20038;-55
2022/10/31 08:31:57;;;;;;;;;;;;;;;22.36;100.00;101852.09;4985353;28;20052;-58
2022/10/31 08:34:41;;;;;;;29.43;14.67;;;;;;;22.26;100.00;101855.50;4981347;28;19947;-58
2022/10/31 08:37:25;;;;;;;26.50;14.57;;;;;;;22.99;100.00;101865.47;4986635;28;20070;-58
2022/10/31 08:39:53;;;;;;;25.07;14.50;;;;;;;22.51;100.00;101848.81;4986711;28;20084;-56
2022/10/31 08:42:20;;;;;;;29.23;15.13;;;;;;;22.58;100.00;101854.06;4995128;28;20470;-57
2022/10/31 08:44:46;;;;;;;34.50;15.70;;;;;;;22.51;100.00;101853.41;5010491;28;20035;-55
2022/10/31 08:47:12;;;;;;;29.02;15.13;;;;;;;22.85;100.00;101853.34;5022513;28;20027;-58
2022/10/31 08:49:38;;;;;;;32.05;16.65;;;;;;;23.13;100.00;101844.09;4993792;28;20037;-55
2022/10/31 08:52:04;;;;;;;25.70;15.48;;;;;;;23.41;100.00;101844.97;4994980;28;20042;-57
2022/10/31 08:54:34;;;;;;;26.07;14.90;;;;;;;23.86;100.00;101833.84;5004256;28;20031;-57
2022/10/31 08:57:26;;;;;;;27.77;15.23;;;;;;;24.89;100.00;101836.41;4981996;28;20077;-55
2022/10/31 08:59:52;;;;;;;29.83;14.48;;;;;;;24.95;100.00;101838.06;4981203;28;20039;-56
2022/10/31 09:02:41;;;;;;;29.67;14.53;;;;;;;24.67;100.00;101845.56;5015361;28;20042;-57
2022/10/31 09:05:07;;;;;;;26.25;12.73;;;;;;;24.11;100.00;101843.38;4997272;28;20031;-57
2022/10/31 09:07:33;;;;;;;23.93;13.10;;;;;;;24.12;100.00;101831.38;4998988;28;20088;-56
2022/10/31 09:09:58;;;;;;;23.42;13.80;;;;;;;24.10;100.00;101831.63;4993351;28;20030;-57
2022/10/31 09:12:25;;;;;;;19.67;11.10;;;;;;;24.70;100.00;101831.41;4993824;28;20068;-57
2022/10/31 09:15:24;;;;;;;22.70;11.75;;;;;;;24.59;100.00;101818.75;5001969;28;20047;-55
2022/10/31 09:17:56;;;;;;;32.57;12.77;;;;;;;24.93;100.00;101818.38;5005479;28;20026;-56
2022/10/31 09:20:33;;;;;;;21.90;10.83;;;;;;;24.47;100.00;101805.31;4987383;28;20031;-56
2022/10/31 09:23:00;;;;;;;26.07;11.93;;;;;;;24.38;100.00;101821.38;5001985;28;20065;-59
2022/10/31 09:25:28;;;;;;;23.73;11.87;;;;;;;24.37;100.00;101827.13;4980961;28;20031;-59
2022/10/31 09:28:17;;;;;;;20.97;10.47;;;;;;;24.11;100.00;101830.53;4985084;28;20035;-55
2022/10/31 09:30:50;;;;;;;20.80;11.23;;;;;;;23.30;100.00;101827.69;4983861;28;20094;-57
2022/10/31 09:33:24;;;;;;;22.00;11.47;;;;;;;23.29;100.00;101831.44;4974649;28;20069;-58
2022/10/31 09:36:10;;;;;;;25.40;11.60;;;;;;;22.82;100.00;101826.53;4989656;28;20027;-57
2022/10/31 09:38:39;;;;;;;23.00;12.17;;;;;;;23.24;100.00;101812.28;4976542;28;20099;-58
2022/10/31 09:41:18;;;;;;;25.83;13.05;;;;;;;23.32;100.00;101814.59;4978808;28;20053;-56
2022/10/31 09:44:08;;;;;;;22.63;13.30;;;;;;;23.34;100.00;101798.78;4975937;28;20035;-56
2022/10/31 09:46:56;;;;;;;23.30;13.57;;;;;;;22.99;100.00;101810.13;4987631;28;20106;-60
2022/10/31 09:49:57;;;;;;;26.33;13.30;;;;;;;23.01;100.00;101802.50;4969727;28;20031;-59
2022/10/31 09:52:28;;;;;;;30.42;14.18;;;;;;;23.01;100.00;101786.13;4986712;28;20057;-58
2022/10/31 09:55:03;;;;;;;26.13;12.97;;;;;;;23.45;100.00;101785.22;4969459;28;20039;-54
2022/10/31 09:57:35;;;;;;;26.37;14.50;;;;;;;23.58;100.00;101776.59;4986780;28;20027;-60
2022/10/31 10:00:04;;;;;;;25.73;13.37;;;;;;;23.69;100.00;101773.94;4970677;28;20031;-57
2022/10/31 10:03:04;;;;;;;27.07;14.13;;;;;;;23.93;100.00;101777.13;4986552;28;20043;-59
2022/10/31 10:05:40;;;;;;;27.60;14.03;;;;;;;24.22;100.00;101774.03;4983782;28;20046;-56
2022/10/31 10:08:21;;;;;;;28.27;13.67;;;;;;;24.28;100.00;101780.34;4987442;28;20041;-60
2022/10/31 10:11:15;;;;;;;30.10;15.00;;;;;;;24.45;100.00;101775.53;4994252;28;20041;-60
2022/10/31 10:13:59;;;;;;;30.67;14.27;;;;;;;24.05;100.00;101774.22;5009612;28;20049;-58
2022/10/31 10:16:45;;;;;;;25.40;14.60;;;;;;;24.04;100.00;101780.78;4996235;28;20041;-55
2022/10/31 10:19:11;;;;;;;27.67;15.10;;;;;;;23.88;100.00;101788.81;4996649;28;20094;-56
2022/10/31 10:21:55;;;;;;;31.63;15.98;;;;;;;23.91;100.00;101766.44;4994725;28;20043;-60
2022/10/31 10:24:53;;;;;;;31.00;15.10;;;;;;;22.93;100.00;101754.69;4991806;28;20065;-60
2022/10/31 10:27:40;;;;;;;30.47;15.73;;;;;;;23.27;100.00;101757.22;4995889;28;20030;-57
2022/10/31 10:30:17;;;;;;;40.55;17.38;;;;;;;23.20;100.00;101745.66;4988043;28;20042;-57
2022/10/31 10:32:49;;;;;;;30.53;16.53;;;;;;;23.02;100.00;101744.94;4996668;28;20045;-56
2022/10/31 10:35:38;;;;;;;32.77;16.57;;;;;;;23.12;100.00;101725.13;4980770;28;20046;-59
2022/10/31 10:38:03;;;;;;;42.80;17.97;;;;;;;23.39;100.00;101726.22;4980461;28;20041;-57
2022/10/31 10:40:29;;;;;;;38.63;16.43;;;;;;;23.12;100.00;101735.25;4986153;28;20047;-57
2022/10/31 10:43:18;;;;;;;33.63;15.85;;;;;;;23.20;100.00;101737.47;4987850;28;20034;-58
2022/10/31 10:48:42;;;;;;;35.57;16.77;;;;;;;23.34;100.00;101697.81;4988057;28;20039;-57
2022/10/31 10:51:20;;;;;;;42.00;19.47;;;;;;;23.44;100.00;101683.41;4980864;28;20549;-56
2022/10/31 10:54:02;;;;;;;38.53;18.47;;;;;;;23.29;100.00;101662.28;4989745;28;20051;-53
2022/10/31 10:56:52;;;;;;;46.27;21.03;;;;;;;23.14;100.00;101689.41;4987145;28;20057;-56
2022/10/31 10:59:20;;;;;;;43.20;21.57;;;;;;;23.51;100.00;101696.00;4990063;28;20062;-56
2022/10/31 11:01:49;;;;;;;51.90;22.60;;;;;;;23.11;100.00;101687.22;4986119;28;20042;-54
2022/10/31 11:04:36;;;;;;;45.87;22.43;;;;;;;24.71;100.00;101712.72;4990653;28;20034;-52
2022/10/31 11:07:08;;;;;;;44.93;21.93;;;;;;;25.01;100.00;101693.88;4990370;28;20038;-57
2022/10/31 11:09:35;;;;;;;37.60;19.30;;;;;;;24.31;100.00;101709.56;4998086;28;20031;-53
2022/10/31 11:12:10;;;;;;;45.17;21.67;;;;;;;24.46;100.00;101707.97;4987597;28;20039;-57
2022/10/31 11:14:45;;;;;;;39.40;19.70;;;;;;;24.14;100.00;101715.22;4986431;28;20084;-55
2022/10/31 11:17:20;;;;;;;47.73;23.30;;;;;;;23.92;100.00;101697.06;4982805;28;20031;-57
2022/10/31 11:19:46;;;;;;;45.17;20.30;;;;;;;24.19;100.00;101685.19;4985924;28;20035;-55
2022/10/31 11:22:17;;;;;;;46.80;22.00;;;;;;;24.05;100.00;101676.66;4986737;28;20043;-51
2022/10/31 11:24:43;;;;;;;45.23;21.37;;;;;;;24.45;100.00;101674.38;4985986;28;20039;-56
2022/10/31 11:27:20;;;;;;;44.00;21.88;;;;;;;23.83;100.00;101665.91;4995594;28;20037;-57
2022/10/31 11:29:46;;;;;;;47.53;22.57;;;;;;;23.88;100.00;101656.91;4989531;28;20035;-53
2022/10/31 11:32:46;;;;;;;46.63;22.83;;;;;;;23.95;100.00;101656.66;4991831;28;20031;-54
2022/10/31 11:35:18;;;;;;;53.00;21.23;;;;;;;23.85;100.00;101650.06;4997026;28;20045;-54